Los Angeles, California
Current Conditions -  °F | °C
As of 4:47 PM on Friday 24 Oct 2014 (Local Time) from KCQT Reporting Station
Clear Clear  
Wind Chill: 83°   Ceiling: Unl
Heat Index: 83°   Visibility: 10mi
Dew Point: 51°   Wind: 0mph
Humidity: 33%   Direction: NA
Pressure: 29.91"   Gusts: NA
Location:  34.05°N, 118.24°W
Report Text: KCQT 242347Z AUTO 00000KT 10SM CLR 28/11 A2991 RMK AO2 SLP127 T02830106 10311 20272 58003
Loading
Personal Weather Stations






























Interactive Weather Map
Tropical Storm Tracking
New forecast layout! Learn more

10-Day Weather Forecast

Advertisements
Track Severe Weather on mobile